createdAt,value
2017-03-14T00:00:20.981Z,0
2017-03-14T00:01:30.892Z,0
2017-03-14T00:02:41.211Z,0
2017-03-14T00:03:51.127Z,0
2017-03-14T00:05:01.695Z,0
2017-03-14T00:06:11.585Z,0
2017-03-14T00:07:21.836Z,0
2017-03-14T00:08:32.082Z,0
2017-03-14T00:09:42.367Z,0
2017-03-14T00:10:52.903Z,0
2017-03-14T00:12:03.200Z,0
2017-03-14T00:13:13.100Z,0
2017-03-14T00:14:23.398Z,0
2017-03-14T00:15:33.291Z,0
2017-03-14T00:16:43.902Z,0
2017-03-14T00:17:54.204Z,0
2017-03-14T00:19:04.466Z,0
2017-03-14T00:20:14.317Z,0
2017-03-14T00:21:24.567Z,0
2017-03-14T00:22:35.340Z,0
2017-03-14T00:23:45.629Z,0
2017-03-14T00:24:55.489Z,0
2017-03-14T00:26:05.366Z,0
2017-03-14T00:27:15.734Z,0
2017-03-14T00:28:26.111Z,0
2017-03-14T00:29:36.431Z,0
2017-03-14T00:30:46.330Z,0
2017-03-14T00:31:56.176Z,0
2017-03-14T00:33:06.450Z,0
2017-03-14T00:34:17.006Z,0
2017-03-14T00:35:26.918Z,0
2017-03-14T00:36:37.184Z,0
2017-03-14T00:37:47.499Z,0
2017-03-14T00:38:57.805Z,0
2017-03-14T00:40:08.332Z,0
2017-03-14T00:41:18.576Z,0
2017-03-14T00:42:28.831Z,0
2017-03-14T00:43:39.141Z,0
2017-03-14T00:44:49.385Z,0
2017-03-14T00:45:59.995Z,0
2017-03-14T00:47:10.265Z,0
2017-03-14T00:48:20.548Z,0
2017-03-14T00:49:30.817Z,0
2017-03-14T00:50:41.085Z,0
2017-03-14T00:51:51.791Z,0
2017-03-14T00:53:02.082Z,0
2017-03-14T00:54:12.367Z,0
2017-03-14T00:55:22.616Z,0
2017-03-14T00:56:32.892Z,0
2017-03-14T00:57:43.455Z,0
2017-03-14T00:58:53.314Z,0
2017-03-14T01:00:03.673Z,0
2017-03-14T01:01:13.937Z,0
2017-03-14T01:02:24.229Z,0
2017-03-14T01:03:34.781Z,0
2017-03-14T01:04:45.032Z,0
2017-03-14T01:05:55.299Z,0
2017-03-14T01:07:05.254Z,0
2017-03-14T01:08:15.525Z,0
2017-03-14T01:09:25.620Z,0
2017-03-14T01:10:35.130Z,0
2017-03-14T01:11:45.411Z,0
2017-03-14T01:12:55.696Z,0
2017-03-14T01:14:05.996Z,0
2017-03-14T01:15:16.625Z,0
2017-03-14T01:16:26.925Z,0
2017-03-14T01:17:36.786Z,0
2017-03-14T01:18:47.078Z,0
2017-03-14T01:19:57.353Z,0
2017-03-14T01:21:07.974Z,0
2017-03-14T01:22:18.319Z,0
2017-03-14T01:23:28.665Z,0
2017-03-14T01:24:38.607Z,0
2017-03-14T01:25:48.924Z,0
2017-03-14T01:26:59.021Z,0
2017-03-14T01:28:09.251Z,0
2017-03-14T01:29:19.491Z,0
2017-03-14T01:30:29.763Z,0
2017-03-14T01:31:40.034Z,0
2017-03-14T01:32:50.562Z,0
2017-03-14T01:34:00.823Z,0
2017-03-14T01:35:11.126Z,0
2017-03-14T01:36:21.379Z,0
2017-03-14T01:37:31.708Z,0
2017-03-14T01:38:41.853Z,0
2017-03-14T01:39:52.124Z,0
2017-03-14T01:41:01.983Z,0
2017-03-14T01:42:12.309Z,0
2017-03-14T01:43:22.563Z,0
2017-03-14T01:44:32.738Z,0
2017-03-14T01:45:42.983Z,0
2017-03-14T01:46:52.842Z,0
2017-03-14T01:48:03.101Z,0
2017-03-14T01:49:13.382Z,0
2017-03-14T01:50:23.906Z,0
2017-03-14T01:51:34.221Z,0
2017-03-14T01:52:44.476Z,0
2017-03-14T01:53:54.347Z,0
2017-03-14T01:55:04.333Z,0
2017-03-14T01:56:15.017Z,0
2017-03-14T01:57:24.866Z,0
2017-03-14T01:58:34.855Z,0
2017-03-14T01:59:44.833Z,0
2017-03-14T02:00:55.217Z,0
2017-03-14T02:02:05.785Z,0
2017-03-14T02:03:15.693Z,0
2017-03-14T02:04:25.953Z,0
2017-03-14T02:05:35.786Z,0
2017-03-14T02:06:45.674Z,0
2017-03-14T02:07:56.182Z,0
2017-03-14T02:09:06.480Z,0
2017-03-14T02:10:16.731Z,0
2017-03-14T02:11:26.983Z,0
2017-03-14T02:12:37.229Z,0
2017-03-14T02:13:47.775Z,0
2017-03-14T02:14:58.024Z,0
2017-03-14T02:16:08.304Z,0
2017-03-14T02:17:18.550Z,0
2017-03-14T02:18:28.388Z,0
2017-03-14T02:19:39.103Z,0
2017-03-14T02:20:49.066Z,0
2017-03-14T02:21:59.394Z,0
2017-03-14T02:23:09.652Z,0
2017-03-14T02:24:19.969Z,0
2017-03-14T02:25:30.486Z,0
2017-03-14T02:26:40.753Z,0
2017-03-14T02:27:50.621Z,0
2017-03-14T02:29:00.559Z,0
2017-03-14T02:30:10.850Z,0
2017-03-14T02:31:21.468Z,0
2017-03-14T02:32:31.707Z,0
2017-03-14T02:33:42.017Z,0
2017-03-14T02:34:51.876Z,0
2017-03-14T02:36:02.162Z,0
2017-03-14T02:37:12.314Z,0
2017-03-14T02:38:22.564Z,0
2017-03-14T02:39:32.808Z,0
2017-03-14T02:40:43.118Z,0
2017-03-14T02:41:53.491Z,0
2017-03-14T02:43:04.027Z,0
2017-03-14T02:44:13.900Z,0
2017-03-14T02:45:24.165Z,0
2017-03-14T02:46:33.603Z,0
2017-03-14T02:47:43.896Z,0
2017-03-14T02:48:54.444Z,0
2017-03-14T02:50:04.689Z,0
2017-03-14T02:51:15.016Z,0
2017-03-14T02:52:25.351Z,0
2017-03-14T02:53:35.597Z,0
2017-03-14T02:54:46.102Z,0
2017-03-14T02:55:56.367Z,0
2017-03-14T02:57:06.877Z,0
2017-03-14T02:58:17.163Z,0
2017-03-14T02:59:27.010Z,0
2017-03-14T03:00:37.495Z,0
2017-03-14T03:01:47.819Z,0
2017-03-14T03:02:58.075Z,0
2017-03-14T03:04:07.955Z,0
2017-03-14T03:05:18.269Z,0
2017-03-14T03:06:28.778Z,0
2017-03-14T03:07:39.029Z,0
2017-03-14T03:08:49.347Z,0
2017-03-14T03:09:59.661Z,0
2017-03-14T03:11:09.957Z,0
2017-03-14T03:12:20.173Z,0
2017-03-14T03:13:30.017Z,0
2017-03-14T03:14:40.365Z,0
2017-03-14T03:15:50.649Z,0
2017-03-14T03:17:00.579Z,0
2017-03-14T03:18:11.153Z,0
2017-03-14T03:19:21.482Z,0
2017-03-14T03:20:31.781Z,0
2017-03-14T03:21:42.259Z,0
2017-03-14T03:22:52.557Z,0
2017-03-14T03:24:03.069Z,0
2017-03-14T03:25:13.378Z,0
2017-03-14T03:26:23.652Z,0
2017-03-14T03:27:33.898Z,0
2017-03-14T03:28:44.142Z,0
2017-03-14T03:29:54.495Z,0
2017-03-14T03:31:04.757Z,0
2017-03-14T03:32:15.331Z,0
2017-03-14T03:33:25.221Z,0
2017-03-14T03:34:35.492Z,0
2017-03-14T03:35:45.608Z,0
2017-03-14T03:36:56.000Z,0
2017-03-14T03:38:06.098Z,0
2017-03-14T03:39:16.395Z,0
2017-03-14T03:40:26.804Z,0
2017-03-14T03:41:37.332Z,0
2017-03-14T03:42:47.570Z,0
2017-03-14T03:43:57.965Z,0
2017-03-14T03:45:08.207Z,0
2017-03-14T03:46:18.451Z,0
2017-03-14T03:47:29.097Z,0
2017-03-14T03:48:39.361Z,0
2017-03-14T03:49:49.698Z,0
2017-03-14T03:51:00.007Z,0
2017-03-14T03:52:10.253Z,0
2017-03-14T03:53:19.958Z,0
2017-03-14T03:54:30.314Z,0
2017-03-14T03:55:40.631Z,0
2017-03-14T03:56:50.485Z,0
2017-03-14T03:58:00.831Z,0
2017-03-14T03:59:11.341Z,0
2017-03-14T04:00:21.776Z,0
2017-03-14T04:01:32.088Z,0
2017-03-14T04:02:42.417Z,0
2017-03-14T04:03:52.757Z,0
2017-03-14T04:05:03.281Z,0
2017-03-14T04:06:13.612Z,0
2017-03-14T04:07:23.898Z,0
2017-03-14T04:08:33.767Z,0
2017-03-14T04:09:44.068Z,0
2017-03-14T04:10:54.655Z,0
2017-03-14T04:12:05.200Z,0
2017-03-14T04:13:15.530Z,0
2017-03-14T04:14:25.833Z,0
2017-03-14T04:15:35.706Z,0
2017-03-14T04:16:46.216Z,0
2017-03-14T04:17:56.465Z,0
2017-03-14T04:19:06.891Z,0
2017-03-14T04:20:16.738Z,0
2017-03-14T04:21:26.993Z,0
2017-03-14T04:22:37.504Z,0
2017-03-14T04:23:47.377Z,0
2017-03-14T04:24:57.645Z,0
2017-03-14T04:26:07.891Z,0
2017-03-14T04:27:17.804Z,0
2017-03-14T04:28:28.379Z,0
2017-03-14T04:29:38.277Z,0
2017-03-14T04:30:48.562Z,0
2017-03-14T04:31:58.874Z,0
2017-03-14T04:33:09.244Z,0
2017-03-14T04:34:19.740Z,0
2017-03-14T04:35:29.613Z,0
2017-03-14T04:36:39.477Z,0
2017-03-14T04:37:49.952Z,0
2017-03-14T04:39:00.218Z,0
2017-03-14T04:40:10.716Z,0
2017-03-14T04:41:20.961Z,0
2017-03-14T04:42:31.227Z,0
2017-03-14T04:43:41.693Z,0
2017-03-14T04:44:51.961Z,0
2017-03-14T04:46:02.530Z,0
2017-03-14T04:47:12.387Z,0
2017-03-14T04:48:22.276Z,0
2017-03-14T04:49:32.529Z,0
2017-03-14T04:50:42.808Z,0
2017-03-14T04:51:53.291Z,0
2017-03-14T04:53:03.154Z,0
2017-03-14T04:54:13.456Z,0
2017-03-14T04:55:23.717Z,0
2017-03-14T04:56:34.027Z,0
2017-03-14T04:57:44.524Z,0
2017-03-14T04:58:54.805Z,0
2017-03-14T05:00:05.050Z,0
2017-03-14T05:01:14.980Z,0
2017-03-14T05:02:25.275Z,0
2017-03-14T05:03:35.854Z,0
2017-03-14T05:04:46.091Z,0
2017-03-14T05:05:56.378Z,0
2017-03-14T05:07:06.251Z,0
2017-03-14T05:08:16.551Z,0
2017-03-14T05:09:27.062Z,0
2017-03-14T05:10:36.955Z,0
2017-03-14T05:11:47.353Z,0
2017-03-14T05:12:57.640Z,0
2017-03-14T05:14:07.873Z,0
2017-03-14T05:15:18.397Z,0
2017-03-14T05:16:28.659Z,0
2017-03-14T05:17:38.940Z,0
2017-03-14T05:18:49.237Z,0
2017-03-14T05:19:59.506Z,0
2017-03-14T05:21:10.030Z,0
2017-03-14T05:22:20.448Z,5
2017-03-14T05:23:30.293Z,5
2017-03-14T05:24:40.662Z,5
2017-03-14T05:25:50.927Z,5
2017-03-14T05:27:01.595Z,5
2017-03-14T05:28:11.874Z,10
2017-03-14T05:29:21.818Z,10
2017-03-14T05:30:32.115Z,10
2017-03-14T05:31:42.386Z,10
2017-03-14T05:32:52.881Z,15
2017-03-14T05:34:03.213Z,15
2017-03-14T05:35:13.514Z,15
2017-03-14T05:36:23.890Z,15
2017-03-14T05:37:33.723Z,20
2017-03-14T05:38:44.253Z,20
2017-03-14T05:39:54.516Z,20
2017-03-14T05:41:04.823Z,25
2017-03-14T05:42:15.084Z,25
2017-03-14T05:43:25.401Z,30
2017-03-14T05:44:35.956Z,30
2017-03-14T05:45:46.238Z,35
2017-03-14T05:46:56.550Z,40
2017-03-14T05:48:06.833Z,40
2017-03-14T05:49:49.082Z,45
2017-03-14T05:50:58.951Z,45
2017-03-14T05:52:09.245Z,50
2017-03-14T05:53:19.511Z,50
2017-03-14T05:54:29.784Z,55
2017-03-14T05:55:40.286Z,55
2017-03-14T05:56:50.147Z,60
2017-03-14T05:58:00.413Z,60
2017-03-14T05:59:10.652Z,65
2017-03-14T06:00:20.946Z,65
2017-03-14T06:01:31.043Z,70
2017-03-14T06:02:41.385Z,70
2017-03-14T06:03:51.276Z,75
2017-03-14T06:05:01.593Z,75
2017-03-14T06:06:11.836Z,80
2017-03-14T06:07:21.933Z,80
2017-03-14T06:08:32.456Z,85
2017-03-14T06:09:42.392Z,90
2017-03-14T06:10:52.696Z,90
2017-03-14T06:12:02.963Z,90
2017-03-14T06:13:13.503Z,95
2017-03-14T06:14:23.749Z,100
2017-03-14T06:15:34.003Z,105
2017-03-14T06:16:43.869Z,110
2017-03-14T06:17:54.159Z,115
2017-03-14T06:19:04.678Z,125
2017-03-14T06:20:14.909Z,135
2017-03-14T06:21:25.219Z,145
2017-03-14T06:22:35.613Z,155
2017-03-14T06:23:45.887Z,170
2017-03-14T06:24:56.407Z,170
2017-03-14T06:26:06.742Z,180
2017-03-14T06:27:17.014Z,185
2017-03-14T06:28:27.292Z,190
2017-03-14T06:29:37.660Z,200
2017-03-14T06:30:48.226Z,205
2017-03-14T06:31:58.575Z,205
2017-03-14T06:33:09.079Z,215
2017-03-14T06:34:19.414Z,210
2017-03-14T06:35:28.844Z,210
2017-03-14T06:36:39.340Z,210
2017-03-14T06:37:49.591Z,210
2017-03-14T06:38:59.966Z,210
2017-03-14T06:40:10.212Z,205
2017-03-14T06:41:20.488Z,195
2017-03-14T06:42:30.662Z,185
2017-03-14T06:43:40.979Z,175
2017-03-14T06:44:50.845Z,175
2017-03-14T06:46:01.325Z,170
2017-03-14T06:47:11.623Z,170
2017-03-14T06:48:22.176Z,175
2017-03-14T06:49:32.479Z,180
2017-03-14T06:50:42.764Z,180
2017-03-14T06:51:53.008Z,185
2017-03-14T06:53:03.393Z,185
2017-03-14T06:54:13.564Z,185
2017-03-14T06:55:23.831Z,185
2017-03-14T06:56:34.077Z,185
2017-03-14T06:57:43.977Z,190
2017-03-14T06:58:54.249Z,190
2017-03-14T07:00:04.779Z,200
2017-03-14T07:01:15.112Z,210
2017-03-14T07:02:25.410Z,220
2017-03-14T07:03:35.967Z,235
2017-03-14T07:04:46.218Z,245
2017-03-14T07:05:56.764Z,260
2017-03-14T07:07:07.026Z,275
2017-03-14T07:08:17.303Z,285
2017-03-14T07:09:27.614Z,290
2017-03-14T07:10:38.640Z,300
2017-03-14T07:11:49.143Z,300
2017-03-14T07:12:59.500Z,300
2017-03-14T07:14:09.777Z,295
2017-03-14T07:15:19.651Z,295
2017-03-14T07:16:29.904Z,295
2017-03-14T07:17:40.473Z,290
2017-03-14T07:18:50.816Z,280
2017-03-14T07:20:01.100Z,285
2017-03-14T07:21:11.385Z,295
2017-03-14T07:22:21.764Z,305
2017-03-14T07:23:32.329Z,315
2017-03-14T07:24:42.582Z,330
2017-03-14T07:25:52.851Z,330
2017-03-14T07:27:02.311Z,315
2017-03-14T07:28:12.581Z,315
2017-03-14T07:29:23.202Z,315
2017-03-14T07:30:33.049Z,320
2017-03-14T07:31:43.089Z,325
2017-03-14T07:32:53.369Z,330
2017-03-14T07:34:03.232Z,340
2017-03-14T07:35:13.759Z,345
2017-03-14T07:36:24.160Z,345
2017-03-14T07:37:34.020Z,340
2017-03-14T07:38:44.336Z,330
2017-03-14T07:39:54.613Z,320
2017-03-14T07:41:05.229Z,315
2017-03-14T07:42:15.084Z,310
2017-03-14T07:43:25.409Z,300
2017-03-14T07:44:35.713Z,295
2017-03-14T07:45:45.575Z,305
2017-03-14T07:46:55.719Z,325
2017-03-14T07:48:06.114Z,355
2017-03-14T07:49:16.400Z,385
2017-03-14T07:50:25.850Z,405
2017-03-14T07:51:36.182Z,420
2017-03-14T07:52:46.665Z,445
2017-03-14T07:53:56.920Z,475
2017-03-14T07:55:07.334Z,515
2017-03-14T07:56:17.680Z,550
2017-03-14T07:57:27.985Z,605
2017-03-14T07:58:38.479Z,640
2017-03-14T07:59:48.738Z,665
2017-03-14T08:00:58.803Z,660
2017-03-14T08:02:09.060Z,690
2017-03-14T08:03:19.523Z,715
2017-03-14T08:04:30.095Z,740
2017-03-14T08:05:40.369Z,785
2017-03-14T08:06:50.667Z,855
2017-03-14T08:08:00.502Z,970
2017-03-14T08:09:11.557Z,1880
2017-03-14T08:10:22.782Z,1215
2017-03-14T08:11:33.789Z,1395
2017-03-14T08:12:44.706Z,1090
2017-03-14T08:13:55.627Z,760
2017-03-14T08:15:05.934Z,735
2017-03-14T08:16:15.626Z,735
2017-03-14T08:17:25.880Z,725
2017-03-14T08:18:36.202Z,745
2017-03-14T08:19:46.086Z,765
2017-03-14T08:20:56.337Z,765
2017-03-14T08:22:06.844Z,790
2017-03-14T08:23:17.098Z,810
2017-03-14T08:24:27.376Z,865
2017-03-14T08:25:37.870Z,850
2017-03-14T08:26:48.136Z,900
2017-03-14T08:27:58.749Z,960
2017-03-14T08:29:09.007Z,970
2017-03-14T08:30:18.868Z,810
2017-03-14T08:31:29.150Z,805
2017-03-14T08:32:39.405Z,805
2017-03-14T08:33:49.980Z,785
2017-03-14T08:35:00.287Z,735
2017-03-14T08:36:10.546Z,690
2017-03-14T08:37:20.800Z,645
2017-03-14T08:38:31.304Z,615
2017-03-14T08:39:41.831Z,605
2017-03-14T08:40:52.103Z,605
2017-03-14T08:42:02.362Z,600
2017-03-14T08:43:12.632Z,575
2017-03-14T08:44:23.167Z,550
2017-03-14T08:45:33.728Z,535
2017-03-14T08:46:44.000Z,525
2017-03-14T08:47:54.327Z,525
2017-03-14T08:49:04.583Z,525
2017-03-14T08:50:14.843Z,530
2017-03-14T08:51:25.388Z,535
2017-03-14T08:52:35.769Z,545
2017-03-14T08:53:46.026Z,585
2017-03-14T08:54:56.284Z,630
2017-03-14T08:56:06.128Z,690
2017-03-14T08:57:16.632Z,750
2017-03-14T08:58:26.877Z,805
2017-03-14T08:59:37.131Z,840
2017-03-14T09:00:47.421Z,870
2017-03-14T09:01:57.693Z,915
2017-03-14T09:03:08.352Z,850
2017-03-14T09:04:18.222Z,835
2017-03-14T09:05:28.073Z,825
2017-03-14T09:06:38.336Z,850
2017-03-14T09:07:48.598Z,905
2017-03-14T09:08:59.434Z,980
2017-03-14T09:10:09.280Z,1010
2017-03-14T09:11:19.559Z,1210
2017-03-14T09:12:29.438Z,1175
2017-03-14T09:13:39.691Z,1020
2017-03-14T09:14:49.842Z,985
2017-03-14T09:16:00.138Z,965
2017-03-14T09:17:10.596Z,925
2017-03-14T09:18:20.471Z,965
2017-03-14T09:19:30.807Z,1300
2017-03-14T09:20:41.382Z,1015
2017-03-14T09:21:51.646Z,1010
2017-03-14T09:23:02.137Z,1095
2017-03-14T09:24:12.407Z,980
2017-03-14T09:25:22.955Z,945
2017-03-14T09:26:33.546Z,905
2017-03-14T09:27:43.839Z,955
2017-03-14T09:28:54.113Z,1330
2017-03-14T09:30:04.431Z,1065
2017-03-14T09:31:14.769Z,1295
2017-03-14T09:32:25.306Z,1205
2017-03-14T09:33:36.356Z,1930
2017-03-14T09:34:47.345Z,2340
2017-03-14T09:35:58.351Z,2835
2017-03-14T09:37:08.509Z,2125
2017-03-14T09:38:19.326Z,1865
2017-03-14T09:39:30.271Z,2125
2017-03-14T09:40:40.855Z,2135
2017-03-14T09:41:51.778Z,2090
2017-03-14T09:43:02.331Z,2380
2017-03-14T09:44:13.518Z,2140
2017-03-14T09:45:24.482Z,1795
2017-03-14T09:46:35.411Z,1630
2017-03-14T09:47:46.358Z,2490
2017-03-14T09:48:57.321Z,3010
2017-03-14T09:50:08.537Z,3570
2017-03-14T09:51:19.470Z,3745
2017-03-14T09:52:30.437Z,3960
2017-03-14T09:53:41.030Z,3570
2017-03-14T09:54:51.609Z,3775
2017-03-14T09:56:02.814Z,3055
2017-03-14T09:57:13.839Z,1935
2017-03-14T09:58:24.815Z,1980
2017-03-14T09:59:35.840Z,1945
2017-03-14T10:00:46.383Z,2215
2017-03-14T10:01:57.607Z,3315
2017-03-14T10:03:08.524Z,2210
2017-03-14T10:04:19.291Z,2780
2017-03-14T10:05:30.356Z,2120
2017-03-14T10:06:40.914Z,2460
2017-03-14T10:07:52.147Z,1725
2017-03-14T10:09:02.694Z,3070
2017-03-14T10:10:13.267Z,1805
2017-03-14T10:11:23.780Z,3450
2017-03-14T10:12:34.976Z,3500
2017-03-14T10:13:46.158Z,2955
2017-03-14T10:14:57.260Z,2735
2017-03-14T10:16:08.233Z,2655
2017-03-14T10:17:19.164Z,2695
2017-03-14T10:18:29.756Z,2845
2017-03-14T10:19:40.940Z,3370
2017-03-14T10:20:51.423Z,3655
2017-03-14T10:22:02.477Z,3580
2017-03-14T10:23:12.819Z,3225
2017-03-14T10:24:23.342Z,2930
2017-03-14T10:25:33.776Z,2960
2017-03-14T10:26:44.298Z,2770
2017-03-14T10:27:54.827Z,2430
2017-03-14T10:29:05.289Z,3140
2017-03-14T10:30:15.978Z,3460
2017-03-14T10:31:26.454Z,3845
2017-03-14T10:32:38.006Z,3775
2017-03-14T10:33:48.602Z,3430
2017-03-14T10:34:59.170Z,3155
2017-03-14T10:36:09.747Z,2665
2017-03-14T10:37:20.533Z,2945
2017-03-14T10:38:31.101Z,3100
2017-03-14T10:39:41.681Z,3435
2017-03-14T10:40:52.268Z,3890
2017-03-14T10:42:02.179Z,3745
2017-03-14T10:43:13.077Z,3660
2017-03-14T10:44:24.607Z,3965
2017-03-14T10:45:34.815Z,4170
2017-03-14T10:46:45.334Z,3780
2017-03-14T10:47:55.929Z,3555
2017-03-14T10:49:06.923Z,3575
2017-03-14T10:50:17.460Z,3645
2017-03-14T10:51:27.804Z,3670
2017-03-14T10:52:38.410Z,3705
2017-03-14T10:53:48.969Z,3810
2017-03-14T10:54:59.574Z,3825
2017-03-14T10:56:10.140Z,3815
2017-03-14T10:57:20.400Z,3765
2017-03-14T10:58:30.936Z,3810
2017-03-14T10:59:41.456Z,3740
2017-03-14T11:00:52.278Z,3760
2017-03-14T11:02:02.860Z,1490
2017-03-14T11:03:12.475Z,1200
2017-03-14T11:04:23.049Z,1100
2017-03-14T11:05:33.669Z,1065
2017-03-14T11:06:44.511Z,1040
2017-03-14T11:07:55.069Z,1010
2017-03-14T11:09:05.295Z,985
2017-03-14T11:10:15.175Z,945
2017-03-14T11:11:25.128Z,915
2017-03-14T11:12:35.317Z,895
2017-03-14T11:13:45.328Z,910
2017-03-14T11:14:55.261Z,900
2017-03-14T11:16:05.017Z,890
2017-03-14T11:17:14.959Z,930
2017-03-14T11:18:25.179Z,955
2017-03-14T11:19:35.186Z,1000
2017-03-14T11:20:45.114Z,1025
2017-03-14T11:21:55.030Z,1025
2017-03-14T11:23:05.129Z,955
2017-03-14T11:24:15.354Z,895
2017-03-14T11:25:25.389Z,920
2017-03-14T11:26:35.358Z,950
2017-03-14T11:27:45.353Z,945
2017-03-14T11:28:55.279Z,905
2017-03-14T11:30:05.456Z,865
2017-03-14T11:31:15.473Z,825
2017-03-14T11:32:25.448Z,800
2017-03-14T11:33:35.428Z,805
2017-03-14T11:34:45.355Z,810
2017-03-14T11:35:55.599Z,825
2017-03-14T11:37:05.564Z,845
2017-03-14T11:38:15.535Z,835
2017-03-14T11:39:25.139Z,805
2017-03-14T11:40:35.395Z,805
2017-03-14T11:41:45.618Z,845
2017-03-14T11:42:55.565Z,875
2017-03-14T11:44:05.541Z,870
2017-03-14T11:45:15.534Z,930
2017-03-14T11:46:25.650Z,960
2017-03-14T11:47:35.837Z,940
2017-03-14T11:48:45.784Z,935
2017-03-14T11:49:55.800Z,965
2017-03-14T11:51:05.382Z,1020
2017-03-14T11:52:15.346Z,985
2017-03-14T11:53:25.533Z,985
2017-03-14T11:54:35.177Z,1005
2017-03-14T11:55:44.801Z,1065
2017-03-14T11:56:54.473Z,1070
2017-03-14T11:58:04.460Z,1080
2017-03-14T11:59:14.658Z,1100
2017-03-14T12:00:24.579Z,1115
2017-03-14T12:01:34.264Z,1100
2017-03-14T12:02:44.268Z,1140
2017-03-14T12:03:54.252Z,1235
2017-03-14T12:05:04.532Z,1345
2017-03-14T12:06:14.473Z,1450
2017-03-14T12:07:24.444Z,1330
2017-03-14T12:08:34.438Z,1195
2017-03-14T12:09:44.357Z,1225
2017-03-14T12:10:54.306Z,1235
2017-03-14T12:12:04.256Z,1205
2017-03-14T12:13:13.995Z,1355
2017-03-14T12:14:23.708Z,1525
2017-03-14T12:15:33.878Z,1435
2017-03-14T12:16:44.098Z,1355
2017-03-14T12:17:54.101Z,1175
2017-03-14T12:19:04.032Z,1075
2017-03-14T12:20:13.654Z,1020
2017-03-14T12:21:23.571Z,915
2017-03-14T12:22:33.773Z,965
2017-03-14T12:23:43.705Z,980
2017-03-14T12:24:53.712Z,1205
2017-03-14T12:26:03.667Z,1315
2017-03-14T12:27:13.305Z,1395
2017-03-14T12:28:23.504Z,1515
2017-03-14T12:29:33.119Z,1500
2017-03-14T12:30:43.325Z,1765
2017-03-14T12:31:53.040Z,1930
2017-03-14T12:33:03.059Z,1890
2017-03-14T12:34:13.331Z,1795
2017-03-14T12:35:23.292Z,1850
2017-03-14T12:36:33.465Z,1645
2017-03-14T12:37:43.487Z,1315
2017-03-14T12:38:53.536Z,1260
2017-03-14T12:40:03.826Z,1215
2017-03-14T12:41:13.757Z,1135
2017-03-14T12:42:23.039Z,1115
2017-03-14T12:43:33.029Z,1065
2017-03-14T12:44:42.994Z,1075
2017-03-14T12:45:53.217Z,1100
2017-03-14T12:47:03.128Z,1110
2017-03-14T12:48:13.158Z,1040
2017-03-14T12:49:23.090Z,950
2017-03-14T12:50:33.135Z,895
2017-03-14T12:51:43.399Z,820
2017-03-14T12:52:53.408Z,775
2017-03-14T12:54:03.407Z,755
2017-03-14T12:55:13.337Z,775
2017-03-14T12:56:23.254Z,740
2017-03-14T12:57:33.465Z,680
2017-03-14T12:58:43.430Z,640
2017-03-14T12:59:53.417Z,585
2017-03-14T13:01:03.352Z,550
2017-03-14T13:02:13.312Z,595
2017-03-14T13:03:23.515Z,665
2017-03-14T13:04:33.540Z,680
2017-03-14T13:05:43.507Z,650
2017-03-14T13:06:53.524Z,625
2017-03-14T13:08:03.437Z,565
2017-03-14T13:09:13.676Z,540
2017-03-14T13:10:23.764Z,545
2017-03-14T13:11:33.751Z,570
2017-03-14T13:12:43.705Z,590
2017-03-14T13:13:53.771Z,615
2017-03-14T13:15:04.001Z,620
2017-03-14T13:16:13.616Z,590
2017-03-14T13:17:23.610Z,630
2017-03-14T13:18:33.544Z,690
2017-03-14T13:19:43.485Z,730
2017-03-14T13:20:53.721Z,730
2017-03-14T13:22:03.335Z,760
2017-03-14T13:23:13.313Z,765
2017-03-14T13:24:23.244Z,715
2017-03-14T13:25:33.205Z,700
2017-03-14T13:26:43.598Z,725
2017-03-14T13:27:53.537Z,705
2017-03-14T13:29:03.463Z,810
2017-03-14T13:30:13.411Z,775
2017-03-14T13:31:23.354Z,880
2017-03-14T13:32:33.572Z,850
2017-03-14T13:33:43.559Z,920
2017-03-14T13:34:53.712Z,1015
2017-03-14T13:36:03.661Z,1015
2017-03-14T13:37:13.610Z,1220
2017-03-14T13:38:23.844Z,1275
2017-03-14T13:39:33.783Z,1400
2017-03-14T13:40:43.714Z,1270
2017-03-14T13:41:53.726Z,1325
2017-03-14T13:43:03.768Z,1520
2017-03-14T13:44:13.993Z,1495
2017-03-14T13:45:24.119Z,1615
2017-03-14T13:46:34.110Z,1600
2017-03-14T13:47:44.126Z,1170
2017-03-14T13:48:54.162Z,1130
2017-03-14T13:50:04.412Z,1035
2017-03-14T13:51:14.414Z,935
2017-03-14T13:52:24.353Z,865
2017-03-14T13:53:34.327Z,835
2017-03-14T13:54:44.307Z,930
2017-03-14T13:55:54.570Z,940
2017-03-14T13:57:04.519Z,1010
2017-03-14T13:58:14.501Z,1030
2017-03-14T13:59:24.481Z,980
2017-03-14T14:00:34.595Z,1015
2017-03-14T14:01:44.828Z,1025
2017-03-14T14:02:57.854Z,965
2017-03-14T14:14:05.866Z,1045
2017-03-14T14:15:15.829Z,990
2017-03-14T14:16:25.817Z,930
2017-03-14T14:17:35.824Z,880
2017-03-14T14:18:45.453Z,855
2017-03-14T14:19:55.627Z,880
2017-03-14T14:21:05.532Z,995
2017-03-14T14:22:15.648Z,1470
2017-03-14T14:23:25.313Z,1525
2017-03-14T14:24:35.266Z,1990
2017-03-14T14:25:45.515Z,2020
2017-03-14T14:26:55.437Z,1920
2017-03-14T14:28:05.506Z,1860
2017-03-14T14:29:15.464Z,1815
2017-03-14T14:30:25.454Z,1705
2017-03-14T14:31:35.769Z,1810
2017-03-14T14:32:45.771Z,1880
2017-03-14T14:33:55.386Z,1710
2017-03-14T14:35:05.332Z,1590
2017-03-14T14:36:15.346Z,1575
2017-03-14T14:37:25.681Z,1500
2017-03-14T14:38:35.605Z,1400
2017-03-14T14:39:45.534Z,1430
2017-03-14T14:40:55.203Z,1395
2017-03-14T14:42:05.155Z,1470
2017-03-14T14:43:15.336Z,1245
2017-03-14T14:44:25.339Z,1330
2017-03-14T14:45:35.456Z,1320
2017-03-14T14:46:45.416Z,1185
2017-03-14T14:47:55.378Z,950
2017-03-14T14:49:05.661Z,1040
2017-03-14T14:50:15.598Z,730
2017-03-14T14:51:25.578Z,850
2017-03-14T14:52:35.699Z,820
2017-03-14T14:53:45.338Z,660
2017-03-14T14:54:55.577Z,590
2017-03-14T14:56:05.495Z,695
2017-03-14T14:57:15.456Z,780
2017-03-14T14:58:25.424Z,755
2017-03-14T14:59:35.387Z,870
2017-03-14T15:00:45.825Z,1005
2017-03-14T15:01:55.878Z,1060
2017-03-14T15:03:05.805Z,1060
2017-03-14T15:04:15.954Z,1045
2017-03-14T15:05:25.914Z,1120
2017-03-14T15:06:36.125Z,965
2017-03-14T15:07:45.752Z,965
2017-03-14T15:08:55.388Z,970
2017-03-14T15:10:05.377Z,1035
2017-03-14T15:11:15.358Z,1180
2017-03-14T15:12:25.571Z,1190
2017-03-14T15:13:35.646Z,1070
2017-03-14T15:14:45.580Z,1040
2017-03-14T15:15:55.584Z,985
2017-03-14T15:17:05.574Z,895
2017-03-14T15:18:15.752Z,940
2017-03-14T15:19:25.684Z,955
2017-03-14T15:20:35.686Z,950
2017-03-14T15:21:45.363Z,895
2017-03-14T15:22:55.317Z,920
2017-03-14T15:24:05.520Z,895
2017-03-14T15:25:15.478Z,835
2017-03-14T15:26:25.489Z,805
2017-03-14T15:27:35.565Z,790
2017-03-14T15:28:45.572Z,720
2017-03-14T15:29:55.882Z,605
2017-03-14T15:31:05.878Z,520
2017-03-14T15:32:15.586Z,515
2017-03-14T15:33:25.546Z,495
2017-03-14T15:34:35.281Z,425
2017-03-14T15:35:45.498Z,420
2017-03-14T15:36:55.578Z,425
2017-03-14T15:38:05.528Z,450
2017-03-14T15:39:15.551Z,480
2017-03-14T15:40:25.484Z,480
2017-03-14T15:41:35.714Z,480
2017-03-14T15:42:45.757Z,490
2017-03-14T15:43:55.424Z,475
2017-03-14T15:45:05.393Z,460
2017-03-14T15:46:15.334Z,535
2017-03-14T15:47:25.194Z,565
2017-03-14T15:48:35.175Z,485
2017-03-14T15:49:44.490Z,440
2017-03-14T15:50:54.472Z,425
2017-03-14T15:52:04.451Z,435
2017-03-14T15:53:14.334Z,415
2017-03-14T15:54:24.290Z,355
2017-03-14T15:55:34.231Z,325
2017-03-14T15:56:44.224Z,310
2017-03-14T15:57:54.168Z,295
2017-03-14T15:59:04.348Z,290
2017-03-14T16:00:14.270Z,280
2017-03-14T16:01:23.930Z,265
2017-03-14T16:02:33.659Z,265
2017-03-14T16:03:43.660Z,255
2017-03-14T16:04:53.548Z,250
2017-03-14T16:06:03.495Z,245
2017-03-14T16:07:13.427Z,245
2017-03-14T16:08:23.131Z,230
2017-03-14T16:09:33.469Z,225
2017-03-14T16:10:43.647Z,220
2017-03-14T16:11:53.273Z,215
2017-03-14T16:13:03.218Z,210
2017-03-14T16:14:13.179Z,210
2017-03-14T16:15:23.157Z,200
2017-03-14T16:16:33.473Z,195
2017-03-14T16:17:43.470Z,185
2017-03-14T16:18:53.464Z,180
2017-03-14T16:20:03.427Z,170
2017-03-14T16:21:13.405Z,160
2017-03-14T16:22:23.745Z,155
2017-03-14T16:23:33.726Z,150
2017-03-14T16:24:43.837Z,145
2017-03-14T16:25:53.850Z,145
2017-03-14T16:27:03.872Z,135
2017-03-14T16:28:14.099Z,125
2017-03-14T16:29:24.071Z,120
2017-03-14T16:30:33.996Z,120
2017-03-14T16:31:43.999Z,105
2017-03-14T16:32:53.946Z,100